Time;durP1;ratioP1;P1;durP2;ratioP2;P2;SDS_P1;SDS_P2;PMS_P1;PMS_P2;Temp;Humidity;BMP_temperature;BMP_pressure;BME280_temperature;BME280_humidity;BME280_pressure;Samples;Min_cycle;Max_cycle;Signal;HPM_P1;HPM_P2
2022/02/17 00:01:45;;;;;;;;;;;18.80;57.10;;;;;;5035560;28;1633;-67
2022/02/17 00:04:11;;;;;;;;;;;18.80;57.10;;;;;;5033279;28;1328;-67
2022/02/17 00:06:36;;;;;;;;;;;18.80;57.10;;;;;;5033576;28;1136;-67
2022/02/17 00:09:02;;;;;;;;;;;18.80;57.10;;;;;;5033748;28;1906;-69
2022/02/17 00:11:27;;;;;;;;;;;18.80;57.10;;;;;;5033204;28;1279;-69
2022/02/17 00:13:53;;;;;;;;;;;18.80;57.20;;;;;;5034292;28;1059;-67
2022/02/17 00:16:18;;;;;;;;;;;18.80;57.20;;;;;;5033236;28;1361;-69
2022/02/17 00:18:43;;;;;;;;;;;18.80;57.20;;;;;;5033439;28;1248;-68
2022/02/17 00:21:09;;;;;;;;;;;18.80;57.30;;;;;;5034056;28;1350;-69
2022/02/17 00:23:34;;;;;;;;;;;18.80;57.20;;;;;;5034086;28;1270;-69
2022/02/17 00:26:00;;;;;;;;;;;18.80;57.30;;;;;;5034170;28;1282;-68
2022/02/17 00:28:25;;;;;;;;;;;18.70;57.20;;;;;;5033645;28;1898;-69
2022/02/17 00:30:51;;;;;;;;;;;18.80;57.30;;;;;;5037939;28;1275;-69
2022/02/17 00:33:16;;;;;;;;;;;18.80;57.30;;;;;;5054025;28;1292;-69
2022/02/17 00:35:42;;;;;;;;;;;18.80;57.90;;;;;;5037430;28;1276;-69
2022/02/17 00:38:07;;;;;;;;;;;18.70;57.30;;;;;;5033730;28;1264;-68
2022/02/17 00:40:32;;;;;;;;;;;18.70;57.30;;;;;;5033217;28;1128;-69
2022/02/17 00:42:58;;;;;;;;;;;18.70;57.30;;;;;;5033504;28;1253;-68
2022/02/17 00:45:23;;;;;;;;;;;18.70;57.30;;;;;;5033488;28;1059;-69
2022/02/17 00:47:50;;;;;;;;;;;18.70;57.40;;;;;;5033732;28;1961;-69
2022/02/17 00:50:15;;;;;;;;;;;18.70;57.40;;;;;;5032966;28;1244;-69
2022/02/17 00:52:41;;;;;;;;;;;18.70;57.40;;;;;;5033969;28;1255;-69
2022/02/17 00:55:06;;;;;;;;;;;18.70;57.40;;;;;;5047315;28;1479;-68
2022/02/17 00:57:32;;;;;;;;;;;18.70;57.40;;;;;;5033336;28;1135;-68
2022/02/17 00:59:57;;;;;;;;;;;18.70;57.40;;;;;;5032873;28;1381;-67
2022/02/17 01:02:23;;;;;;;;;;;18.70;57.40;;;;;;5033325;28;1355;-69
2022/02/17 01:04:48;;;;;;;;;;;18.70;57.50;;;;;;5045141;28;1472;-68
2022/02/17 01:07:14;;;;;;;;;;;18.70;57.50;;;;;;5043287;28;1969;-68
2022/02/17 01:09:39;;;;;;;;;;;18.70;57.50;;;;;;5052370;28;1344;-70
2022/02/17 01:12:05;;;;;;;;;;;18.60;57.50;;;;;;5051967;28;1304;-68
2022/02/17 01:14:30;;;;;;;;;;;18.70;57.50;;;;;;5051738;28;1087;-69
2022/02/17 01:16:55;;;;;;;;;;;18.60;57.50;;;;;;5051990;28;1279;-70
2022/02/17 01:19:21;;;;;;;;;;;18.60;57.50;;;;;;5051098;28;1401;-71
2022/02/17 01:21:46;;;;;;;;;;;18.70;58.20;;;;;;5053332;28;1393;-70
2022/02/17 01:24:12;;;;;;;;;;;18.60;57.60;;;;;;5053263;28;1190;-68
2022/02/17 01:26:37;;;;;;;;;;;18.70;57.60;;;;;;5052768;28;1290;-70
2022/02/17 01:29:03;;;;;;;;;;;18.70;57.60;;;;;;5049925;28;1893;-70
2022/02/17 01:31:28;;;;;;;;;;;18.70;57.60;;;;;;5041488;28;1276;-69
2022/02/17 01:33:54;;;;;;;;;;;18.70;57.60;;;;;;5051819;28;1309;-70
2022/02/17 01:36:19;;;;;;;;;;;18.60;57.60;;;;;;5032799;28;1073;-70
2022/02/17 01:38:45;;;;;;;;;;;18.60;57.60;;;;;;5032494;28;1334;-69
2022/02/17 01:41:10;;;;;;;;;;;18.60;57.70;;;;;;5031207;28;1365;-70
2022/02/17 01:43:36;;;;;;;;;;;18.60;57.60;;;;;;5031851;28;1374;-69
2022/02/17 01:46:01;;;;;;;;;;;18.60;57.70;;;;;;5031933;28;1134;-69
2022/02/17 01:48:27;;;;;;;;;;;18.60;57.70;;;;;;5031731;28;1965;-69
2022/02/17 01:50:52;;;;;;;;;;;18.60;57.70;;;;;;5032561;28;1377;-69
2022/02/17 01:53:18;;;;;;;;;;;18.60;57.70;;;;;;5048299;22;2915;-71
2022/02/17 01:55:47;;;;;;;;;;;18.60;57.70;;;;;;5023375;28;1315;-71
2022/02/17 01:58:13;;;;;;;;;;;18.60;57.70;;;;;;5032923;28;1366;-71
2022/02/17 02:00:38;;;;;;;;;;;18.60;57.70;;;;;;5031730;28;1661;-72
2022/02/17 02:03:04;;;;;;;;;;;18.60;57.70;;;;;;5032436;28;1531;-70
2022/02/17 02:05:29;;;;;;;;;;;18.60;57.70;;;;;;5032867;28;1659;-70
2022/02/17 02:07:55;;;;;;;;;;;18.60;57.70;;;;;;5032861;28;1898;-70
2022/02/17 02:10:20;;;;;;;;;;;18.60;57.70;;;;;;5031161;28;1439;-70
2022/02/17 02:12:46;;;;;;;;;;;18.60;57.80;;;;;;5031643;28;1473;-71
2022/02/17 02:15:11;;;;;;;;;;;18.60;57.80;;;;;;5015335;28;1596;-70
2022/02/17 02:17:38;;;;;;;;;;;18.60;57.80;;;;;;5031437;28;1772;-70
2022/02/17 02:20:04;;;;;;;;;;;18.60;57.80;;;;;;5031190;28;1787;-70
2022/02/17 02:22:30;;;;;;;;;;;18.50;57.80;;;;;;5031413;28;1368;-70
2022/02/17 02:24:58;;;;;;;;;;;18.50;57.80;;;;;;5031568;28;1650;-69
2022/02/17 02:27:24;;;;;;;;;;;18.50;57.80;;;;;;5031567;28;1973;-71
2022/02/17 02:29:49;;;;;;;;;;;18.50;57.80;;;;;;5031259;28;1773;-72
2022/02/17 02:32:15;;;;;;;;;;;18.50;57.80;;;;;;5032033;28;1494;-71
2022/02/17 02:34:40;;;;;;;;;;;18.50;57.80;;;;;;5031604;28;1663;-72
2022/02/17 02:37:05;;;;;;;;;;;18.50;57.80;;;;;;5031417;28;1739;-71
2022/02/17 02:39:34;;;;;;;;;;;18.50;57.80;;;;;;5031251;28;1673;-69
2022/02/17 02:42:00;;;;;;;;;;;18.50;57.80;;;;;;5031033;28;1681;-69
2022/02/17 02:44:25;;;;;;;;;;;18.50;57.90;;;;;;5032405;28;1699;-68
2022/02/17 02:46:51;;;;;;;;;;;18.50;57.80;;;;;;5031419;28;1421;-68
2022/02/17 02:49:16;;;;;;;;;;;18.50;57.90;;;;;;5032341;28;1891;-69
2022/02/17 02:51:41;;;;;;;;;;;18.50;57.90;;;;;;5014512;28;1374;-69
2022/02/17 02:54:07;;;;;;;;;;;18.50;57.90;;;;;;5031176;28;1647;-69
2022/02/17 02:56:33;;;;;;;;;;;18.50;57.90;;;;;;5032439;28;1620;-69
2022/02/17 02:58:59;;;;;;;;;;;18.50;57.90;;;;;;5025833;28;1864;-69
2022/02/17 03:01:25;;;;;;;;;;;18.50;57.90;;;;;;5026037;28;1307;-69
2022/02/17 03:03:50;;;;;;;;;;;18.50;57.90;;;;;;5032707;28;1677;-69
2022/02/17 03:06:16;;;;;;;;;;;18.50;57.90;;;;;;5034696;28;1411;-69
2022/02/17 03:08:42;;;;;;;;;;;18.50;57.90;;;;;;5034846;28;1902;-69
2022/02/17 03:11:07;;;;;;;;;;;18.50;57.90;;;;;;5018399;28;1696;-70
2022/02/17 03:13:32;;;;;;;;;;;18.50;57.90;;;;;;5034892;28;1232;-69
2022/02/17 03:15:58;;;;;;;;;;;18.50;58.00;;;;;;5036131;28;1630;-70
2022/02/17 03:18:23;;;;;;;;;;;18.50;58.00;;;;;;5035858;28;1325;-70
2022/02/17 03:20:49;;;;;;;;;;;18.50;58.00;;;;;;5034922;28;1725;-70
2022/02/17 03:23:14;;;;;;;;;;;18.50;58.00;;;;;;5035797;28;1405;-70
2022/02/17 03:25:39;;;;;;;;;;;18.50;58.00;;;;;;5034677;28;1656;-70
2022/02/17 03:28:05;;;;;;;;;;;18.50;58.00;;;;;;5034578;28;1949;-70
2022/02/17 03:30:30;;;;;;;;;;;18.50;58.00;;;;;;5034076;28;1273;-70
2022/02/17 03:32:56;;;;;;;;;;;18.50;58.00;;;;;;5035630;28;1408;-70
2022/02/17 03:35:21;;;;;;;;;;;18.50;58.00;;;;;;5035735;28;1396;-70
2022/02/17 03:37:47;;;;;;;;;;;18.50;58.00;;;;;;5034384;28;1687;-70
2022/02/17 03:40:12;;;;;;;;;;;18.40;58.00;;;;;;5035465;28;1635;-70
2022/02/17 03:42:38;;;;;;;;;;;18.40;58.00;;;;;;5034230;28;1662;-70
2022/02/17 03:45:03;;;;;;;;;;;18.40;58.00;;;;;;5035649;28;1392;-71
2022/02/17 03:47:29;;;;;;;;;;;18.40;58.00;;;;;;5034164;28;1953;-72
2022/02/17 03:49:54;;;;;;;;;;;18.40;58.00;;;;;;5035215;28;1362;-73
2022/02/17 03:52:20;;;;;;;;;;;18.40;58.00;;;;;;5034198;28;1379;-73
2022/02/17 03:54:45;;;;;;;;;;;18.40;58.10;;;;;;5035390;28;1625;-72
2022/02/17 03:57:11;;;;;;;;;;;18.40;58.00;;;;;;5034160;28;1447;-73
2022/02/17 03:59:36;;;;;;;;;;;18.40;58.00;;;;;;5033745;28;1367;-73
2022/02/17 04:02:02;;;;;;;;;;;18.40;58.10;;;;;;5033933;28;1783;-72
2022/02/17 04:04:27;;;;;;;;;;;18.40;58.10;;;;;;5035189;28;988;-73
2022/02/17 04:06:52;;;;;;;;;;;18.40;58.10;;;;;;5035152;28;1738;-73
2022/02/17 04:09:18;;;;;;;;;;;18.40;58.10;;;;;;5034883;28;1961;-73
2022/02/17 04:11:43;;;;;;;;;;;18.40;58.10;;;;;;5034992;28;1447;-73
2022/02/17 04:14:09;;;;;;;;;;;18.40;58.10;;;;;;5035030;28;1664;-72
2022/02/17 04:16:34;;;;;;;;;;;18.40;58.10;;;;;;5033097;28;1426;-72
2022/02/17 04:18:59;;;;;;;;;;;18.40;58.10;;;;;;5034441;28;1410;-72
2022/02/17 04:21:25;;;;;;;;;;;18.40;58.20;;;;;;5033514;28;1678;-71
2022/02/17 04:23:50;;;;;;;;;;;18.40;58.20;;;;;;5034950;28;1398;-71
2022/02/17 04:26:17;;;;;;;;;;;18.40;58.20;;;;;;5034794;28;1312;-71
2022/02/17 04:28:42;;;;;;;;;;;18.40;58.20;;;;;;5034484;28;1974;-69
2022/02/17 04:31:08;;;;;;;;;;;18.40;58.20;;;;;;5033372;28;1771;-69
2022/02/17 04:33:33;;;;;;;;;;;18.40;58.20;;;;;;5034584;28;1489;-68
2022/02/17 04:35:59;;;;;;;;;;;18.40;58.20;;;;;;5033231;28;1712;-69
2022/02/17 04:38:24;;;;;;;;;;;18.40;58.20;;;;;;5033224;28;1589;-69
2022/02/17 04:43:34;;;;;;;;;;;18.40;58.20;;;;;;5034211;28;1845;-69
2022/02/17 04:45:59;;;;;;;;;;;18.40;58.30;;;;;;5033165;28;1365;-69
2022/02/17 04:48:25;;;;;;;;;;;18.40;58.20;;;;;;5034122;28;1910;-69
2022/02/17 04:50:50;;;;;;;;;;;18.40;58.80;;;;;;5034421;28;1367;-70
2022/02/17 04:53:17;;;;;;;;;;;18.30;58.20;;;;;;5034107;28;1786;-70
2022/02/17 04:55:43;;;;;;;;;;;18.40;58.30;;;;;;5033043;28;1622;-71
2022/02/17 04:58:08;;;;;;;;;;;18.40;58.30;;;;;;5034253;28;1691;-70
2022/02/17 05:00:34;;;;;;;;;;;18.40;58.30;;;;;;5033918;28;1679;-70
2022/02/17 05:02:59;;;;;;;;;;;18.40;58.30;;;;;;5033984;28;1419;-70
2022/02/17 05:05:25;;;;;;;;;;;18.40;58.30;;;;;;5034208;28;1403;-70
2022/02/17 05:07:50;;;;;;;;;;;18.40;58.30;;;;;;5033785;28;1969;-70
2022/02/17 05:10:15;;;;;;;;;;;18.40;58.30;;;;;;5033754;28;1670;-70
2022/02/17 05:12:41;;;;;;;;;;;18.40;58.30;;;;;;5033759;28;1365;-70
2022/02/17 05:15:07;;;;;;;;;;;18.40;58.30;;;;;;5033953;28;1340;-70
2022/02/17 05:17:32;;;;;;;;;;;18.40;58.30;;;;;;5033551;28;1091;-70
2022/02/17 05:19:58;;;;;;;;;;;18.30;58.30;;;;;;5015738;28;1685;-70
2022/02/17 05:22:23;;;;;;;;;;;18.40;58.30;;;;;;5033637;28;1424;-71
2022/02/17 05:24:48;;;;;;;;;;;18.30;58.30;;;;;;5033569;28;1280;-68
2022/02/17 05:27:14;;;;;;;;;;;18.30;58.30;;;;;;5024216;28;2032;-71
2022/02/17 05:29:39;;;;;;;;;;;18.40;58.30;;;;;;5032757;28;1354;-70
2022/02/17 05:32:05;;;;;;;;;;;18.40;58.30;;;;;;5033423;28;1388;-69
2022/02/17 05:34:30;;;;;;;;;;;18.40;58.20;;;;;;5032222;28;1401;-69
2022/02/17 05:36:56;;;;;;;;;;;18.40;58.20;;;;;;5032016;28;1473;-69
2022/02/17 05:39:21;;;;;;;;;;;18.40;58.10;;;;;;5032388;28;1692;-68
2022/02/17 05:41:47;;;;;;;;;;;18.50;58.10;;;;;;5032391;28;1400;-68
2022/02/17 05:44:12;;;;;;;;;;;18.50;58.00;;;;;;5032586;28;1355;-68
2022/02/17 05:46:37;;;;;;;;;;;18.50;57.90;;;;;;5031476;28;1538;-68
2022/02/17 05:49:03;;;;;;;;;;;18.50;57.80;;;;;;5031614;28;1906;-68
2022/02/17 05:51:29;;;;;;;;;;;18.60;57.70;;;;;;5032257;28;1671;-68
2022/02/17 05:53:54;;;;;;;;;;;18.60;57.60;;;;;;5031647;28;1468;-70
2022/02/17 05:56:19;;;;;;;;;;;18.60;57.50;;;;;;5032521;28;1355;-70
2022/02/17 05:58:45;;;;;;;;;;;18.70;57.50;;;;;;5031120;28;1397;-70
2022/02/17 06:01:10;;;;;;;;;;;18.60;57.40;;;;;;5008098;28;1352;-70
2022/02/17 06:03:36;;;;;;;;;;;18.70;57.10;;;;;;5022992;28;1482;-72
2022/02/17 06:06:01;;;;;;;;;;;18.70;57.30;;;;;;5031072;28;1407;-68
2022/02/17 06:08:26;;;;;;;;;;;18.70;57.30;;;;;;5031947;28;1899;-68
2022/02/17 06:10:52;;;;;;;;;;;18.70;57.30;;;;;;5032165;28;1584;-68
2022/02/17 06:13:17;;;;;;;;;;;18.80;57.20;;;;;;5032120;28;1380;-70
2022/02/17 06:15:43;;;;;;;;;;;18.80;57.20;;;;;;5032588;28;1359;-69
2022/02/17 06:18:08;;;;;;;;;;;18.80;57.10;;;;;;5031480;28;1518;-68
2022/02/17 06:20:34;;;;;;;;;;;18.80;57.10;;;;;;5032266;28;1414;-70
2022/02/17 06:22:59;;;;;;;;;;;18.80;57.10;;;;;;5031139;28;1269;-70
2022/02/17 06:25:24;;;;;;;;;;;18.80;57.00;;;;;;5030722;28;1404;-69
2022/02/17 06:27:50;;;;;;;;;;;18.80;57.00;;;;;;5031300;28;1894;-70
2022/02/17 06:30:16;;;;;;;;;;;18.90;57.00;;;;;;5029325;28;1167;-69
2022/02/17 06:32:45;;;;;;;;;;;18.90;57.00;;;;;;5030753;28;1493;-70
2022/02/17 06:35:10;;;;;;;;;;;18.90;56.90;;;;;;5014324;28;1883;-70
2022/02/17 06:37:36;;;;;;;;;;;18.90;56.90;;;;;;5032217;28;1384;-70
2022/02/17 06:40:01;;;;;;;;;;;18.90;56.80;;;;;;5030763;28;1446;-70
2022/02/17 06:42:27;;;;;;;;;;;18.90;56.80;;;;;;5035900;28;1379;-67
2022/02/17 06:44:52;;;;;;;;;;;18.90;56.80;;;;;;5034458;28;1382;-67
2022/02/17 06:47:18;;;;;;;;;;;18.90;56.80;;;;;;5035700;28;1958;-66
2022/02/17 06:49:43;;;;;;;;;;;18.90;56.80;;;;;;5017640;28;1341;-67
2022/02/17 06:52:09;;;;;;;;;;;18.90;56.70;;;;;;5034086;28;1363;-70
2022/02/17 06:54:34;;;;;;;;;;;19.00;56.80;;;;;;5035513;28;1323;-69
2022/02/17 06:57:00;;;;;;;;;;;19.00;56.80;;;;;;5035288;28;1401;-68
2022/02/17 06:59:25;;;;;;;;;;;19.00;56.70;;;;;;5035434;28;1071;-70
2022/02/17 07:01:50;;;;;;;;;;;19.00;56.70;;;;;;5035833;28;1296;-68
2022/02/17 07:04:18;;;;;;;;;;;19.00;56.70;;;;;;5035887;28;1114;-71
2022/02/17 07:06:44;;;;;;;;;;;19.00;56.70;;;;;;5035914;28;1043;-72
2022/02/17 07:09:09;;;;;;;;;;;19.00;56.70;;;;;;5034999;28;1950;-71
2022/02/17 07:11:34;;;;;;;;;;;19.00;56.70;;;;;;5035125;28;1244;-72
2022/02/17 07:14:00;;;;;;;;;;;19.00;56.70;;;;;;5035325;28;1131;-70
2022/02/17 07:16:25;;;;;;;;;;;19.00;56.70;;;;;;5035030;28;1411;-70
2022/02/17 07:18:51;;;;;;;;;;;19.00;56.70;;;;;;5033641;28;1345;-70
2022/02/17 07:21:16;;;;;;;;;;;19.00;56.70;;;;;;5033999;28;1359;-70
2022/02/17 07:23:42;;;;;;;;;;;19.00;56.60;;;;;;5035522;28;1099;-69
2022/02/17 07:26:07;;;;;;;;;;;19.00;56.60;;;;;;5035057;28;1272;-70
2022/02/17 07:28:34;;;;;;;;;;;19.00;56.60;;;;;;5034989;28;1906;-69
2022/02/17 07:30:59;;;;;;;;;;;19.00;56.60;;;;;;5034910;28;1272;-71
2022/02/17 07:33:25;;;;;;;;;;;19.00;56.60;;;;;;5034829;28;1319;-70
2022/02/17 07:35:50;;;;;;;;;;;19.00;56.60;;;;;;5034746;28;1175;-69
2022/02/17 07:38:15;;;;;;;;;;;19.00;56.60;;;;;;5033290;28;1296;-69
2022/02/17 07:40:42;;;;;;;;;;;19.00;56.60;;;;;;5034433;28;1274;-68
2022/02/17 07:43:08;;;;;;;;;;;19.00;56.60;;;;;;5033727;28;1388;-68
2022/02/17 07:45:34;;;;;;;;;;;19.00;56.60;;;;;;5017282;28;1284;-69
2022/02/17 07:47:59;;;;;;;;;;;19.00;56.60;;;;;;5034997;28;1910;-68
2022/02/17 07:50:25;;;;;;;;;;;19.00;56.60;;;;;;5033459;28;1246;-68
2022/02/17 07:52:51;;;;;;;;;;;19.00;56.60;;;;;;5055717;22;3543;-67
2022/02/17 07:55:18;;;;;;;;;;;19.00;56.60;;;;;;5046124;28;1367;-69
2022/02/17 07:57:43;;;;;;;;;;;19.00;56.60;;;;;;5053080;28;1286;-69
2022/02/17 08:00:09;;;;;;;;;;;19.00;56.60;;;;;;5055902;28;1390;-70
2022/02/17 08:02:38;;;;;;;;;;;19.10;56.60;;;;;;5053087;28;1198;-71
2022/02/17 08:05:03;;;;;;;;;;;19.10;56.50;;;;;;5054549;28;1281;-69
2022/02/17 08:07:31;;;;;;;;;;;19.10;56.50;;;;;;5055212;28;1922;-69
2022/02/17 08:09:56;;;;;;;;;;;19.10;56.40;;;;;;5054202;28;1411;-69
2022/02/17 08:12:22;;;;;;;;;;;19.20;56.40;;;;;;5054978;28;1378;-69
2022/02/17 08:14:47;;;;;;;;;;;19.20;56.20;;;;;;5055147;28;1352;-70
2022/02/17 08:17:14;;;;;;;;;;;19.30;56.20;;;;;;5054783;28;1396;-69
2022/02/17 08:19:39;;;;;;;;;;;19.40;56.10;;;;;;5055475;28;1356;-69
2022/02/17 08:22:04;;;;;;;;;;;19.50;56.00;;;;;;5053503;28;1264;-69
2022/02/17 08:24:30;;;;;;;;;;;19.60;55.80;;;;;;5055282;28;1079;-68
2022/02/17 08:26:59;;;;;;;;;;;19.70;55.70;;;;;;5053443;28;1348;-68
2022/02/17 08:29:26;;;;;;;;;;;19.70;55.50;;;;;;5053203;28;1890;-69
2022/02/17 08:31:51;;;;;;;;;;;19.80;55.30;;;;;;5053821;28;1275;-69
2022/02/17 08:34:17;;;;;;;;;;;19.90;55.10;;;;;;5057234;28;1046;-68
2022/02/17 08:36:42;;;;;;;;;;;20.00;54.90;;;;;;5055319;28;1460;-68
2022/02/17 08:39:08;;;;;;;;;;;20.00;54.80;;;;;;5036052;28;1262;-68
2022/02/17 08:41:34;;;;;;;;;;;20.10;54.60;;;;;;5053160;28;1154;-69
2022/02/17 08:43:59;;;;;;;;;;;20.20;54.60;;;;;;5054227;28;823;-69
2022/02/17 08:46:24;;;;;;;;;;;20.20;54.40;;;;;;5054451;28;1284;-68
2022/02/17 08:48:53;;;;;;;;;;;20.20;54.30;;;;;;5055708;28;1971;-69
2022/02/17 08:51:21;;;;;;;;;;;20.30;54.30;;;;;;5037544;28;1328;-69
2022/02/17 08:53:47;;;;;;;;;;;20.40;54.20;;;;;;5056402;28;1341;-69
2022/02/17 08:56:13;;;;;;;;;;;20.40;54.10;;;;;;5055330;28;1154;-68
2022/02/17 08:58:38;;;;;;;;;;;20.40;54.00;;;;;;5052087;28;1495;-69
2022/02/17 09:01:03;;;;;;;;;;;20.50;54.00;;;;;;5052128;28;1957;-69
2022/02/17 09:03:29;;;;;;;;;;;20.50;53.90;;;;;;5052311;28;1311;-68
2022/02/17 09:05:54;;;;;;;;;;;20.50;53.90;;;;;;5046982;28;1189;-69
2022/02/17 09:08:20;;;;;;;;;;;20.50;53.90;;;;;;5052453;28;1910;-68
2022/02/17 09:10:45;;;;;;;;;;;20.60;53.80;;;;;;5052083;28;1055;-68
2022/02/17 09:13:12;;;;;;;;;;;20.50;53.80;;;;;;5053050;28;1300;-69
2022/02/17 09:15:38;;;;;;;;;;;20.60;53.80;;;;;;5053314;28;1330;-68
2022/02/17 09:18:04;;;;;;;;;;;20.60;53.80;;;;;;5048873;28;1448;-68
2022/02/17 09:20:30;;;;;;;;;;;20.60;53.80;;;;;;5044172;28;1903;-68
2022/02/17 09:22:55;;;;;;;;;;;20.60;53.80;;;;;;5050671;28;1353;-68
2022/02/17 09:25:21;;;;;;;;;;;20.60;53.80;;;;;;5052163;28;1568;-69
2022/02/17 09:27:46;;;;;;;;;;;20.60;53.70;;;;;;5051974;28;1898;-69
2022/02/17 09:30:12;;;;;;;;;;;20.60;53.80;;;;;;5033722;28;1477;-70
2022/02/17 09:32:37;;;;;;;;;;;20.60;53.80;;;;;;5050602;28;1389;-68
2022/02/17 09:35:03;;;;;;;;;;;20.60;53.70;;;;;;5052265;28;1678;-68
2022/02/17 09:37:28;;;;;;;;;;;20.60;53.70;;;;;;5032460;28;1361;-68
2022/02/17 09:39:54;;;;;;;;;;;20.60;53.70;;;;;;5042955;28;1121;-68
2022/02/17 09:42:19;;;;;;;;;;;20.60;53.70;;;;;;5051855;28;1473;-69
2022/02/17 09:44:45;;;;;;;;;;;20.60;53.80;;;;;;5033932;28;1432;-68
2022/02/17 09:47:13;;;;;;;;;;;20.60;53.80;;;;;;5050560;28;1725;-68
2022/02/17 09:49:39;;;;;;;;;;;20.60;53.80;;;;;;5050111;28;1959;-68
2022/02/17 09:52:04;;;;;;;;;;;20.60;53.80;;;;;;5033910;28;1678;-68
2022/02/17 09:54:30;;;;;;;;;;;20.60;53.90;;;;;;5050535;28;1427;-69
2022/02/17 09:56:55;;;;;;;;;;;20.60;53.90;;;;;;5048720;28;1906;-68
2022/02/17 09:59:23;;;;;;;;;;;20.60;54.00;;;;;;5051373;28;1244;-69
2022/02/17 10:02:02;;;;;;;;;;;20.50;53.90;;;;;;5051663;28;1290;-68
2022/02/17 10:04:28;;;;;;;;;;;20.50;54.00;;;;;;5049909;28;1188;-68
2022/02/17 10:06:55;;;;;;;;;;;20.50;54.10;;;;;;5050295;28;1567;-68
2022/02/17 10:09:21;;;;;;;;;;;20.50;54.10;;;;;;5050195;28;1898;-68
2022/02/17 10:11:47;;;;;;;;;;;20.50;54.20;;;;;;5051393;28;1333;-68
2022/02/17 10:14:13;;;;;;;;;;;20.40;54.20;;;;;;5046195;28;1816;-68
2022/02/17 10:16:55;;;;;;;;;;;20.40;54.30;;;;;;5048578;28;1063;-68
2022/02/17 10:19:21;;;;;;;;;;;20.40;54.30;;;;;;5057406;28;1914;-68
2022/02/17 10:21:47;;;;;;;;;;;20.40;54.40;;;;;;5059081;28;2161;-67
2022/02/17 10:24:30;;;;;;;;;;;20.40;54.40;;;;;;5052052;28;1137;-68
2022/02/17 10:26:59;;;;;;;;;;;20.30;54.30;;;;;;5051568;28;1369;-68
2022/02/17 10:29:24;;;;;;;;;;;20.30;54.40;;;;;;5047546;28;1901;-68
2022/02/17 10:31:50;;;;;;;;;;;20.30;54.50;;;;;;5045528;28;1318;-68
2022/02/17 10:34:19;;;;;;;;;;;20.30;54.50;;;;;;5049948;28;1339;-69
2022/02/17 10:36:45;;;;;;;;;;;20.30;54.60;;;;;;5051616;28;1311;-68
2022/02/17 10:39:11;;;;;;;;;;;20.30;54.60;;;;;;5051314;28;1429;-68
2022/02/17 10:41:46;;;;;;;;;;;20.30;54.60;;;;;;5052371;28;1264;-69
2022/02/17 10:44:12;;;;;;;;;;;20.20;54.60;;;;;;5040526;28;1542;-68
2022/02/17 10:46:38;;;;;;;;;;;20.20;54.70;;;;;;5050809;28;1424;-69
2022/02/17 10:49:13;;;;;;;;;;;20.20;54.70;;;;;;5051704;28;1898;-69
2022/02/17 10:51:38;;;;;;;;;;;20.20;54.70;;;;;;5050901;28;1433;-69
2022/02/17 10:54:04;;;;;;;;;;;20.20;54.80;;;;;;5052274;28;1089;-69
2022/02/17 10:56:29;;;;;;;;;;;20.20;54.80;;;;;;5051961;28;1438;-69
2022/02/17 10:58:58;;;;;;;;;;;20.20;54.80;;;;;;5050708;28;1056;-69
2022/02/17 11:01:24;;;;;;;;;;;20.20;54.90;;;;;;5043011;28;1677;-69
2022/02/17 11:03:51;;;;;;;;;;;20.10;54.90;;;;;;5047687;28;2007;-70
2022/02/17 11:06:17;;;;;;;;;;;20.10;54.90;;;;;;5050858;28;1589;-69
2022/02/17 11:08:43;;;;;;;;;;;20.10;55.00;;;;;;5058905;28;1973;-68
2022/02/17 11:11:08;;;;;;;;;;;20.10;55.00;;;;;;5061649;28;1576;-68
2022/02/17 11:13:34;;;;;;;;;;;20.10;55.10;;;;;;5055380;28;1185;-70
2022/02/17 11:16:00;;;;;;;;;;;20.10;55.70;;;;;;5056769;28;1177;-67
2022/02/17 11:18:26;;;;;;;;;;;20.10;55.10;;;;;;5058484;28;1779;-68
2022/02/17 11:20:53;;;;;;;;;;;20.00;55.10;;;;;;5057272;28;1313;-67
2022/02/17 11:23:19;;;;;;;;;;;20.00;55.10;;;;;;5042899;28;1259;-67
2022/02/17 11:25:44;;;;;;;;;;;20.10;55.20;;;;;;5039501;28;1887;-68
2022/02/17 11:28:10;;;;;;;;;;;20.10;55.20;;;;;;5041292;28;1992;-69
2022/02/17 11:30:36;;;;;;;;;;;20.10;55.10;;;;;;5043861;28;1305;-68
2022/02/17 11:33:28;;;;;;;;;;;20.10;55.10;;;;;;5052193;28;1798;-69
2022/02/17 11:35:56;;;;;;;;;;;20.10;55.10;;;;;;5048790;28;1418;-69
2022/02/17 11:38:26;;;;;;;;;;;20.20;55.00;;;;;;5050697;28;1901;-68
2022/02/17 11:41:14;;;;;;;;;;;20.20;55.00;;;;;;5050733;28;1916;-68
2022/02/17 11:43:44;;;;;;;;;;;20.20;54.90;;;;;;5047665;28;1405;-68
2022/02/17 11:46:10;;;;;;;;;;;20.20;54.90;;;;;;5033060;28;1411;-68
2022/02/17 11:48:36;;;;;;;;;;;20.20;55.10;;;;;;5049832;28;1961;-68
2022/02/17 11:51:17;;;;;;;;;;;20.20;54.80;;;;;;5053114;28;1319;-68
2022/02/17 11:53:44;;;;;;;;;;;20.20;54.80;;;;;;5053738;28;1388;-69
2022/02/17 11:56:15;;;;;;;;;;;20.20;54.80;;;;;;5053115;28;1087;-68
2022/02/17 11:58:41;;;;;;;;;;;20.20;54.80;;;;;;5053580;28;1299;-68
2022/02/17 12:01:22;;;;;;;;;;;20.20;54.80;;;;;;5042575;28;1588;-67
2022/02/17 12:04:05;;;;;;;;;;;20.20;54.80;;;;;;5053325;28;1296;-69
2022/02/17 12:06:46;;;;;;;;;;;20.20;54.80;;;;;;5053924;28;1086;-69
2022/02/17 12:09:30;;;;;;;;;;;20.20;54.80;;;;;;5054326;28;1910;-68
2022/02/17 12:11:56;;;;;;;;;;;20.20;54.90;;;;;;5038072;28;1977;-68
2022/02/17 12:14:21;;;;;;;;;;;20.20;54.80;;;;;;5040247;28;1680;-66
2022/02/17 12:16:51;;;;;;;;;;;20.20;54.80;;;;;;5044058;28;1661;-68
2022/02/17 12:19:17;;;;;;;;;;;20.20;54.90;;;;;;5052098;28;1196;-69
2022/02/17 12:21:43;;;;;;;;;;;20.20;54.90;;;;;;5053301;28;1373;-69
2022/02/17 12:24:09;;;;;;;;;;;20.20;54.90;;;;;;5051186;28;1458;-70
2022/02/17 12:26:41;;;;;;;;;;;20.20;54.90;;;;;;5042715;28;1334;-69
2022/02/17 12:29:26;;;;;;;;;;;20.20;54.90;;;;;;5046090;28;1906;-68
2022/02/17 12:31:52;;;;;;;;;;;20.20;55.00;;;;;;5046243;28;1267;-69
2022/02/17 12:34:17;;;;;;;;;;;20.20;55.00;;;;;;5051950;28;1350;-69
2022/02/17 12:36:43;;;;;;;;;;;20.20;55.00;;;;;;5040719;28;1302;-69
2022/02/17 12:39:08;;;;;;;;;;;20.10;55.00;;;;;;5044764;28;1313;-68
2022/02/17 12:41:34;;;;;;;;;;;20.10;55.10;;;;;;5044501;28;1401;-69
2022/02/17 12:43:59;;;;;;;;;;;20.10;55.10;;;;;;5043235;28;1295;-69
2022/02/17 12:46:25;;;;;;;;;;;20.10;55.10;;;;;;5042342;28;1235;-69
2022/02/17 12:48:50;;;;;;;;;;;20.10;55.20;;;;;;5040515;28;1914;-69
2022/02/17 12:51:29;;;;;;;;;;;20.10;55.20;;;;;;5043920;28;1202;-69
2022/02/17 12:53:57;;;;;;;;;;;20.10;55.20;;;;;;5042802;28;1239;-69
2022/02/17 12:56:23;;;;;;;;;;;20.10;55.20;;;;;;5042039;28;1913;-70
2022/02/17 12:58:48;;;;;;;;;;;20.10;55.30;;;;;;5045913;28;1290;-68
2022/02/17 13:01:25;;;;;;;;;;;20.10;55.20;;;;;;5042215;28;1184;-67
2022/02/17 13:03:50;;;;;;;;;;;20.10;55.30;;;;;;5052347;28;1048;-67
2022/02/17 13:06:19;;;;;;;;;;;20.10;55.30;;;;;;5052967;28;1278;-67
2022/02/17 13:08:50;;;;;;;;;;;20.10;55.30;;;;;;5051819;28;1906;-67
2022/02/17 13:11:16;;;;;;;;;;;20.00;55.20;;;;;;5053258;28;1298;-67
2022/02/17 13:13:41;;;;;;;;;;;20.00;55.20;;;;;;5053373;28;1169;-66
2022/02/17 13:16:07;;;;;;;;;;;20.10;55.30;;;;;;5034888;28;1380;-67
2022/02/17 13:18:33;;;;;;;;;;;20.00;55.20;;;;;;5052940;28;1480;-67
2022/02/17 13:21:11;;;;;;;;;;;20.10;55.30;;;;;;5053027;28;1881;-68
2022/02/17 13:23:36;;;;;;;;;;;20.00;55.20;;;;;;5051793;28;1266;-67
2022/02/17 13:26:02;;;;;;;;;;;20.10;55.30;;;;;;5051792;28;1106;-65
2022/02/17 13:28:27;;;;;;;;;;;20.10;55.30;;;;;;5052272;28;1898;-67
2022/02/17 13:30:53;;;;;;;;;;;20.10;55.30;;;;;;5052833;28;1224;-67
2022/02/17 13:33:18;;;;;;;;;;;20.00;55.30;;;;;;5051287;28;1275;-67
2022/02/17 13:35:48;;;;;;;;;;;20.00;55.30;;;;;;5052921;28;1328;-67
2022/02/17 13:38:13;;;;;;;;;;;20.00;55.30;;;;;;5046681;28;1408;-68
2022/02/17 13:40:43;;;;;;;;;;;20.00;55.30;;;;;;5050270;28;1316;-67
2022/02/17 13:43:08;;;;;;;;;;;20.00;55.30;;;;;;5051211;28;1317;-68
2022/02/17 13:45:36;;;;;;;;;;;20.00;55.30;;;;;;5052617;28;1074;-67
2022/02/17 13:48:02;;;;;;;;;;;20.00;55.40;;;;;;5058576;28;1953;-67
2022/02/17 13:50:27;;;;;;;;;;;20.00;55.40;;;;;;5058848;28;1212;-68
2022/02/17 13:52:58;;;;;;;;;;;20.00;55.40;;;;;;5052938;28;1235;-68
2022/02/17 13:55:24;;;;;;;;;;;20.00;55.40;;;;;;5045641;28;1997;-67
2022/02/17 13:57:50;;;;;;;;;;;20.00;55.40;;;;;;5057847;28;1192;-67
2022/02/17 14:00:16;;;;;;;;;;;20.00;55.40;;;;;;5045455;28;1326;-64
2022/02/17 14:02:42;;;;;;;;;;;20.00;55.50;;;;;;5045981;28;1638;-65
2022/02/17 14:05:07;;;;;;;;;;;20.00;55.50;;;;;;5048328;28;1290;-67
2022/02/17 14:07:33;;;;;;;;;;;20.00;55.50;;;;;;5044641;28;1965;-68
2022/02/17 14:09:58;;;;;;;;;;;20.00;55.50;;;;;;5046760;28;1581;-66
2022/02/17 14:12:24;;;;;;;;;;;19.90;55.40;;;;;;5050968;28;1278;-67
2022/02/17 14:14:49;;;;;;;;;;;19.90;55.40;;;;;;5052453;28;1311;-66
2022/02/17 14:17:15;;;;;;;;;;;20.00;55.50;;;;;;5052830;28;1179;-68
2022/02/17 14:19:41;;;;;;;;;;;19.90;55.50;;;;;;5051245;28;1320;-70
2022/02/17 14:22:06;;;;;;;;;;;19.90;55.50;;;;;;5052569;28;1412;-70
2022/02/17 14:24:31;;;;;;;;;;;19.90;55.50;;;;;;5051409;28;1341;-68
2022/02/17 14:26:57;;;;;;;;;;;19.90;55.50;;;;;;5052459;28;1099;-69
2022/02/17 14:29:22;;;;;;;;;;;19.90;55.50;;;;;;5050994;28;1901;-70